createdAt,value
2022-11-22T00:02:03.520Z,-1.60
2022-11-22T00:05:06.066Z,-1.53
2022-11-22T00:08:08.653Z,-1.48
2022-11-22T00:11:10.773Z,-1.42
2022-11-22T00:14:12.932Z,-1.36
2022-11-22T00:17:15.081Z,-1.35
2022-11-22T00:20:17.961Z,-1.32
2022-11-22T00:23:20.105Z,-1.26
2022-11-22T00:26:22.153Z,-1.18
2022-11-22T00:29:24.258Z,-1.04
2022-11-22T00:32:26.341Z,-0.84
2022-11-22T00:35:28.402Z,-0.68
2022-11-22T00:38:30.433Z,-0.55
2022-11-22T00:41:32.539Z,-0.50
2022-11-22T00:44:34.597Z,-0.43
2022-11-22T00:47:36.709Z,-0.36
2022-11-22T00:50:39.360Z,-0.35
2022-11-22T00:53:41.424Z,-0.30
2022-11-22T00:56:43.595Z,-0.26
2022-11-22T00:59:45.647Z,-0.23
2022-11-22T01:02:47.785Z,-0.20
2022-11-22T01:05:49.877Z,-0.18
2022-11-22T01:08:52.140Z,-0.17
2022-11-22T01:11:54.200Z,-0.16
2022-11-22T01:14:56.340Z,-0.14
2022-11-22T01:17:58.824Z,-0.14
2022-11-22T01:21:01.543Z,-0.13
2022-11-22T01:24:03.782Z,-0.12
2022-11-22T01:27:05.828Z,-0.12
2022-11-22T01:30:08.326Z,-0.12
2022-11-22T01:33:10.989Z,-0.10
2022-11-22T01:36:13.150Z,-0.09
2022-11-22T01:39:15.428Z,-0.10
2022-11-22T01:42:17.492Z,-0.09
2022-11-22T01:45:31.712Z,-0.07
2022-11-22T01:48:49.624Z,-0.06
2022-11-22T01:51:55.718Z,-0.03
2022-11-22T01:55:04.101Z,-0.01
2022-11-22T01:58:06.552Z,0.03
2022-11-22T02:01:08.923Z,0.05
2022-11-22T02:04:14.381Z,0.08
2022-11-22T02:07:43.687Z,0.11
2022-11-22T02:10:50.037Z,0.14
2022-11-22T02:13:53.719Z,0.17
2022-11-22T02:16:55.827Z,0.20
2022-11-22T02:19:57.921Z,0.22
2022-11-22T02:22:59.958Z,0.25
2022-11-22T02:26:03.138Z,0.26
2022-11-22T02:29:07.995Z,0.29
2022-11-22T02:32:10.083Z,0.30
2022-11-22T02:35:30.495Z,0.33
2022-11-22T02:38:35.715Z,0.36
2022-11-22T02:41:38.505Z,0.38
2022-11-22T02:44:42.130Z,0.39
2022-11-22T02:47:44.210Z,0.44
2022-11-22T02:50:46.703Z,0.45
2022-11-22T02:53:50.682Z,0.47
2022-11-22T02:56:52.779Z,0.51
2022-11-22T02:59:54.851Z,0.52
2022-11-22T03:02:56.943Z,0.52
2022-11-22T03:05:59.040Z,0.55
2022-11-22T03:09:01.161Z,0.57
2022-11-22T03:12:03.393Z,0.60
2022-11-22T03:15:05.882Z,0.63
2022-11-22T03:18:07.931Z,0.66
2022-11-22T03:21:10.873Z,0.69
2022-11-22T03:24:13.075Z,0.72
2022-11-22T03:27:15.165Z,0.74
2022-11-22T03:30:19.868Z,0.76
2022-11-22T03:33:21.902Z,0.78
2022-11-22T03:36:24.136Z,0.78
2022-11-22T03:39:26.180Z,0.82
2022-11-22T03:42:28.522Z,0.83
2022-11-22T03:45:30.711Z,0.85
2022-11-22T03:48:33.937Z,0.87
2022-11-22T03:51:36.042Z,0.89
2022-11-22T03:54:38.718Z,0.90
2022-11-22T03:57:40.752Z,0.92
2022-11-22T04:00:42.861Z,0.96
2022-11-22T04:03:44.981Z,0.96
2022-11-22T04:06:47.007Z,1.00
2022-11-22T04:09:49.139Z,1.01
2022-11-22T04:12:51.783Z,1.02
2022-11-22T04:15:55.923Z,1.03
2022-11-22T04:18:57.940Z,1.04
2022-11-22T04:22:00.033Z,1.07
2022-11-22T04:25:17.046Z,1.10
2022-11-22T04:28:24.521Z,1.11
2022-11-22T04:31:51.809Z,1.14
2022-11-22T04:34:53.853Z,1.15
2022-11-22T04:37:56.006Z,1.18
2022-11-22T04:48:58.363Z,1.17
2022-11-22T04:52:18.849Z,1.20
2022-11-22T04:55:21.474Z,1.21
2022-11-22T04:58:23.882Z,1.22
2022-11-22T05:01:26.007Z,1.22
2022-11-22T05:04:28.179Z,1.22
2022-11-22T05:07:30.250Z,1.23
2022-11-22T05:10:51.400Z,1.25
2022-11-22T05:13:53.464Z,1.27
2022-11-22T05:16:55.557Z,1.25
2022-11-22T05:19:57.607Z,1.24
2022-11-22T05:23:18.294Z,1.25
2022-11-22T05:26:28.190Z,1.25
2022-11-22T05:29:30.397Z,1.26
2022-11-22T05:32:33.539Z,1.25
2022-11-22T05:35:35.658Z,1.23
2022-11-22T05:38:38.477Z,1.25
2022-11-22T05:41:56.128Z,1.28
2022-11-22T05:44:58.455Z,1.29
2022-11-22T05:48:00.550Z,1.31
2022-11-22T05:51:07.700Z,1.28
2022-11-22T05:54:09.756Z,1.27
2022-11-22T05:57:11.780Z,1.29
2022-11-22T06:00:14.196Z,1.28
2022-11-22T06:03:16.251Z,1.25
2022-11-22T06:06:18.462Z,1.22
2022-11-22T06:09:20.486Z,1.23
2022-11-22T06:12:22.702Z,1.26
2022-11-22T06:15:24.751Z,1.24
2022-11-22T06:18:26.765Z,1.23
2022-11-22T06:21:28.980Z,1.21
2022-11-22T06:24:31.049Z,1.20
2022-11-22T06:27:33.098Z,1.20
2022-11-22T06:30:35.156Z,1.20
2022-11-22T06:33:37.182Z,1.19
2022-11-22T06:36:39.662Z,1.19
2022-11-22T06:39:41.800Z,1.19
2022-11-22T06:42:43.868Z,1.19
2022-11-22T06:45:45.924Z,1.21
2022-11-22T06:48:48.881Z,1.22
2022-11-22T06:51:51.417Z,1.21
2022-11-22T06:54:53.556Z,1.21
2022-11-22T06:57:55.681Z,1.26
2022-11-22T07:01:08.633Z,1.28
2022-11-22T07:04:10.976Z,1.32
2022-11-22T07:07:13.105Z,1.38
2022-11-22T07:10:15.557Z,1.46
2022-11-22T07:13:17.906Z,1.53
2022-11-22T07:16:21.347Z,1.62
2022-11-22T07:19:23.433Z,1.70
2022-11-22T07:22:25.498Z,1.78
2022-11-22T07:25:27.568Z,1.85
2022-11-22T07:28:29.597Z,1.90
2022-11-22T07:31:31.737Z,1.97
2022-11-22T07:34:33.827Z,2.03
2022-11-22T07:37:35.896Z,2.08
2022-11-22T07:40:38.061Z,2.16
2022-11-22T07:43:40.184Z,2.23
2022-11-22T07:46:43.566Z,2.31
2022-11-22T07:49:45.590Z,2.38
2022-11-22T07:52:54.575Z,2.44
2022-11-22T07:55:57.902Z,2.49
2022-11-22T07:59:00.112Z,2.54
2022-11-22T08:02:03.182Z,2.59
2022-11-22T08:05:07.847Z,2.67
2022-11-22T08:08:09.966Z,2.70
2022-11-22T08:11:12.162Z,2.72
2022-11-22T08:14:14.282Z,2.73
2022-11-22T08:17:16.516Z,2.79
2022-11-22T08:20:18.549Z,2.82
2022-11-22T08:23:20.600Z,2.85
2022-11-22T08:26:22.701Z,2.89
2022-11-22T08:29:24.745Z,2.93
2022-11-22T08:32:26.698Z,2.96
2022-11-22T08:35:29.281Z,2.99
2022-11-22T08:38:31.441Z,3.05
2022-11-22T08:41:33.505Z,3.09
2022-11-22T08:44:35.586Z,3.14
2022-11-22T08:47:37.654Z,3.20
2022-11-22T08:50:39.765Z,3.22
2022-11-22T08:53:44.958Z,3.31
2022-11-22T08:56:46.974Z,3.35
2022-11-22T08:59:48.999Z,3.41
2022-11-22T09:02:51.079Z,3.47
2022-11-22T09:09:36.458Z,3.53
2022-11-22T09:12:37.109Z,3.54
2022-11-22T09:15:39.179Z,3.59
2022-11-22T09:18:41.682Z,3.63
2022-11-22T09:21:43.863Z,3.64
2022-11-22T09:24:45.924Z,3.64
2022-11-22T09:27:47.975Z,3.65
2022-11-22T09:30:49.975Z,3.67
2022-11-22T09:33:52.305Z,3.72
2022-11-22T09:36:54.313Z,3.78
2022-11-22T09:39:56.347Z,3.83
2022-11-22T09:43:20.415Z,3.90
2022-11-22T09:46:26.215Z,3.93
2022-11-22T09:49:47.037Z,3.98
2022-11-22T09:53:14.068Z,4.04
2022-11-22T09:56:18.384Z,4.09
2022-11-22T09:59:34.701Z,4.12
2022-11-22T10:02:59.826Z,4.10
2022-11-22T10:06:08.444Z,4.09
2022-11-22T10:09:30.203Z,4.08
2022-11-22T10:13:03.105Z,4.01
2022-11-22T10:16:16.924Z,3.95
2022-11-22T10:19:27.319Z,3.97
2022-11-22T10:22:30.826Z,3.98
2022-11-22T10:25:48.130Z,3.97
2022-11-22T10:29:09.075Z,3.95
2022-11-22T10:32:39.150Z,3.99
2022-11-22T10:36:04.731Z,4.07
2022-11-22T10:39:24.783Z,4.23
2022-11-22T10:42:53.502Z,4.29
2022-11-22T10:46:14.275Z,4.37
2022-11-22T10:49:22.213Z,4.47
2022-11-22T10:52:26.991Z,4.52
2022-11-22T10:55:41.018Z,4.54
2022-11-22T10:59:28.611Z,4.55
2022-11-22T11:02:55.450Z,4.58
2022-11-22T11:06:49.733Z,4.59
2022-11-22T11:10:20.302Z,4.61
2022-11-22T11:13:28.590Z,4.64
2022-11-22T11:16:36.642Z,4.60
2022-11-22T11:19:41.541Z,4.29
2022-11-22T11:23:13.142Z,4.18
2022-11-22T11:26:29.284Z,4.06
2022-11-22T11:29:45.682Z,4.00
2022-11-22T11:32:53.842Z,3.99
2022-11-22T11:36:02.496Z,3.96
2022-11-22T11:39:04.669Z,3.91
2022-11-22T11:42:34.568Z,3.90
2022-11-22T11:45:36.725Z,3.91
2022-11-22T11:48:41.438Z,3.91
2022-11-22T11:51:54.475Z,3.84
2022-11-22T11:55:02.724Z,3.78
2022-11-22T11:58:32.143Z,3.79
2022-11-22T12:01:38.976Z,3.76
2022-11-22T12:04:58.325Z,3.76
2022-11-22T12:08:04.078Z,3.76
2022-11-22T12:11:11.783Z,3.75
2022-11-22T12:14:20.726Z,3.73
2022-11-22T12:17:30.368Z,3.72
2022-11-22T12:20:42.701Z,3.81
2022-11-22T12:23:52.323Z,3.89
2022-11-22T12:26:56.732Z,3.96
2022-11-22T12:29:59.326Z,4.03
2022-11-22T12:33:06.140Z,3.94
2022-11-22T12:39:55.982Z,3.79
2022-11-22T12:43:27.201Z,3.76
2022-11-22T12:46:40.482Z,3.69
2022-11-22T12:48:22.643Z,3.94
2022-11-22T12:50:00.258Z,3.71
2022-11-22T12:53:27.897Z,3.74
2022-11-22T12:56:39.553Z,3.68
2022-11-22T12:59:46.525Z,3.62
2022-11-22T13:03:03.677Z,3.63
2022-11-22T13:06:09.245Z,3.65
2022-11-22T13:09:20.187Z,3.67
2022-11-22T13:12:36.397Z,3.66
2022-11-22T13:15:40.882Z,3.60
2022-11-22T13:18:56.177Z,3.61
2022-11-22T13:22:00.971Z,3.63
2022-11-22T13:25:31.475Z,3.61
2022-11-22T13:28:38.022Z,3.49
2022-11-22T13:32:06.952Z,3.52
2022-11-22T13:35:11.947Z,3.54
2022-11-22T13:38:17.844Z,3.59
2022-11-22T13:41:28.116Z,3.64
2022-11-22T13:44:33.604Z,3.68
2022-11-22T13:47:38.524Z,3.67
2022-11-22T13:50:40.567Z,3.59
2022-11-22T13:53:48.135Z,3.60
2022-11-22T13:57:00.191Z,3.60
2022-11-22T14:00:14.457Z,3.59
2022-11-22T14:03:16.393Z,3.57
2022-11-22T14:06:28.795Z,3.52
2022-11-22T14:09:40.474Z,3.51
2022-11-22T14:12:48.865Z,3.52
2022-11-22T14:16:15.797Z,3.57
2022-11-22T14:19:43.945Z,3.53
2022-11-22T14:23:05.884Z,3.48
2022-11-22T14:26:21.143Z,3.47
2022-11-22T14:29:41.385Z,3.43
2022-11-22T14:33:03.504Z,3.41
2022-11-22T14:36:08.601Z,3.40
2022-11-22T14:39:44.489Z,3.42
2022-11-22T14:42:52.641Z,3.40
2022-11-22T14:46:02.425Z,3.42
2022-11-22T14:49:33.855Z,3.41
2022-11-22T14:52:37.109Z,3.40
2022-11-22T14:55:39.379Z,3.37
2022-11-22T14:58:57.242Z,3.37
2022-11-22T15:02:05.485Z,3.35
2022-11-22T15:09:15.566Z,3.32
2022-11-22T15:09:48.769Z,3.30
2022-11-22T15:13:10.062Z,3.27
2022-11-22T15:58:01.487Z,3.22
2022-11-22T16:01:19.440Z,3.22
2022-11-22T16:04:37.034Z,3.23
2022-11-22T16:07:46.891Z,3.21
2022-11-22T16:10:51.450Z,3.16
2022-11-22T16:13:54.178Z,3.15
2022-11-22T16:17:17.018Z,3.14
2022-11-22T16:20:22.304Z,3.13
2022-11-22T16:23:27.172Z,3.14
2022-11-22T16:26:30.893Z,3.15
2022-11-22T16:29:35.983Z,3.16
2022-11-22T16:32:38.348Z,3.16
2022-11-22T16:35:42.335Z,3.16
2022-11-22T16:38:45.622Z,3.17
2022-11-22T16:41:48.324Z,3.14
2022-11-22T16:44:52.042Z,3.15
2022-11-22T16:48:24.131Z,3.14
2022-11-22T16:51:29.376Z,3.13
2022-11-22T16:54:33.239Z,3.11
2022-11-22T16:57:35.628Z,3.08
2022-11-22T17:00:38.593Z,3.06
2022-11-22T17:03:41.451Z,3.06
2022-11-22T17:06:45.387Z,3.06
2022-11-22T17:09:48.420Z,3.05
2022-11-22T17:12:51.285Z,3.04
2022-11-22T17:15:55.996Z,3.02
2022-11-22T17:18:58.827Z,3.00
2022-11-22T17:22:01.673Z,2.98
2022-11-22T17:25:04.878Z,2.96
2022-11-22T17:28:08.168Z,2.94
2022-11-22T17:31:15.782Z,2.94
2022-11-22T17:34:19.184Z,2.92
2022-11-22T17:37:24.199Z,2.86
2022-11-22T17:40:36.887Z,2.86
2022-11-22T17:43:39.871Z,2.85
2022-11-22T17:46:44.703Z,2.84
2022-11-22T17:49:47.642Z,2.81
2022-11-22T17:52:52.891Z,2.80
2022-11-22T17:56:12.689Z,2.81
2022-11-22T17:59:15.825Z,2.82
2022-11-22T18:02:19.106Z,2.83
2022-11-22T18:05:22.069Z,2.85
2022-11-22T18:08:25.027Z,2.87
2022-11-22T18:11:28.194Z,2.85
2022-11-22T18:14:32.090Z,2.83
2022-11-22T18:17:35.689Z,2.83
2022-11-22T18:20:38.425Z,2.84
2022-11-22T18:23:41.157Z,2.83
2022-11-22T18:26:47.170Z,2.87
2022-11-22T18:29:50.496Z,2.85
2022-11-22T18:32:53.641Z,2.81
2022-11-22T18:36:26.610Z,2.78
2022-11-22T18:39:33.334Z,2.76
2022-11-22T18:42:38.150Z,2.76
2022-11-22T18:45:40.973Z,2.74
2022-11-22T18:48:44.090Z,2.76
2022-11-22T18:51:47.215Z,2.74
2022-11-22T18:54:50.041Z,2.75
2022-11-22T18:57:53.041Z,2.73
2022-11-22T19:00:55.786Z,2.72
2022-11-22T19:03:59.401Z,2.73
2022-11-22T19:07:02.554Z,2.75
2022-11-22T19:10:06.217Z,2.78
2022-11-22T19:13:09.936Z,2.80
2022-11-22T19:16:23.104Z,2.81
2022-11-22T19:19:26.302Z,2.76
2022-11-22T19:22:30.865Z,2.73
2022-11-22T19:25:36.365Z,2.76
2022-11-22T19:28:39.461Z,2.73
2022-11-22T19:31:43.344Z,2.75
2022-11-22T19:34:47.321Z,2.73
2022-11-22T19:37:50.459Z,2.75
2022-11-22T19:40:54.667Z,2.75
2022-11-22T19:43:57.971Z,2.72
2022-11-22T19:47:01.262Z,2.70
2022-11-22T19:50:05.022Z,2.68
2022-11-22T19:53:13.389Z,2.68
2022-11-22T19:56:19.714Z,2.67
2022-11-22T19:59:23.268Z,2.67
2022-11-22T20:02:26.684Z,2.66
2022-11-22T20:05:36.134Z,2.64
2022-11-22T20:08:40.006Z,2.63
2022-11-22T20:11:44.606Z,2.63
2022-11-22T20:14:49.057Z,2.63
2022-11-22T20:17:51.970Z,2.63
2022-11-22T20:21:02.656Z,2.67
2022-11-22T20:24:06.541Z,2.69
2022-11-22T20:27:10.234Z,2.68
2022-11-22T20:30:15.944Z,2.66
2022-11-22T20:33:19.128Z,2.67
2022-11-22T20:36:24.862Z,2.65
2022-11-22T20:39:29.966Z,2.64
2022-11-22T20:42:34.519Z,2.66
2022-11-22T20:45:37.963Z,2.66
2022-11-22T20:48:43.559Z,2.66
2022-11-22T20:51:46.461Z,2.64
2022-11-22T20:54:50.830Z,2.62
2022-11-22T20:57:53.856Z,2.60
2022-11-22T21:00:58.061Z,2.62
2022-11-22T21:04:01.016Z,2.59
2022-11-22T21:07:04.819Z,2.59
2022-11-22T21:10:08.101Z,2.60
2022-11-22T21:13:11.186Z,2.59
2022-11-22T21:16:23.199Z,2.59
2022-11-22T21:19:26.922Z,2.56
2022-11-22T21:22:31.927Z,2.54
2022-11-22T21:25:34.615Z,2.52
2022-11-22T21:28:38.846Z,2.54
2022-11-22T21:31:41.336Z,2.55
2022-11-22T21:34:43.586Z,2.55
2022-11-22T21:37:45.706Z,2.54
2022-11-22T21:41:17.205Z,2.54
2022-11-22T21:44:21.071Z,2.53
2022-11-22T21:47:24.089Z,2.50
2022-11-22T21:50:26.170Z,2.46
2022-11-22T21:53:28.755Z,2.42
2022-11-22T21:56:31.740Z,2.36
2022-11-22T21:59:34.237Z,2.32
2022-11-22T22:02:36.306Z,2.25
2022-11-22T22:05:38.709Z,2.19
2022-11-22T22:08:40.989Z,2.15
2022-11-22T22:11:45.766Z,2.13
2022-11-22T22:14:47.892Z,2.07
2022-11-22T22:17:53.731Z,2.02
2022-11-22T22:21:03.866Z,1.96
2022-11-22T22:24:06.306Z,1.91
2022-11-22T22:27:08.410Z,1.85
2022-11-22T22:30:11.945Z,1.80
2022-11-22T22:33:14.001Z,1.75
2022-11-22T22:36:16.045Z,1.72
2022-11-22T22:39:18.093Z,1.67
2022-11-22T22:42:20.569Z,1.61
2022-11-22T22:45:22.762Z,1.57
2022-11-22T22:48:24.863Z,1.52
2022-11-22T22:51:32.773Z,1.45
2022-11-22T22:54:36.162Z,1.41
2022-11-22T22:57:38.187Z,1.38
2022-11-22T23:00:40.291Z,1.34
2022-11-22T23:03:42.488Z,1.33
2022-11-22T23:06:44.591Z,1.31
2022-11-22T23:09:46.641Z,1.28
2022-11-22T23:12:48.974Z,1.26
2022-11-22T23:15:58.361Z,1.25
2022-11-22T23:19:00.972Z,1.20
2022-11-22T23:22:03.700Z,1.16
2022-11-22T23:25:06.964Z,1.12
2022-11-22T23:28:09.040Z,1.06
2022-11-22T23:31:14.345Z,1.02
2022-11-22T23:34:16.580Z,0.95
2022-11-22T23:37:18.622Z,0.91
2022-11-22T23:40:20.619Z,0.87
2022-11-22T23:43:22.700Z,0.82
2022-11-22T23:46:27.595Z,0.80
2022-11-22T23:49:29.921Z,0.82
2022-11-22T23:52:32.178Z,0.77
2022-11-22T23:55:34.377Z,0.76
2022-11-22T23:58:36.890Z,0.73
